Portada
METAR-TAF:

METAR-TAF

Aeroports :

Banjarmasin, Indonèsia

latitud: 03-26-32S, longitud: 114-45-45E, altitud: 20 m

Observació

L'informe es va fer fa 42 minuts, a les 03:30 UTC
Vent 3 kt del Sud/Sud-Est
Temperatura 29°C
Humitat 79%
Pressió 1009 hPa
Visibilitat 10 km o més
Escasses núvols a una alçada de 1800 ft

METAR: WAOO 300330Z 15003KT 9999 FEW018 29/25 Q1009

Hora: 11:12 (04:12 UTC)

Pronòstic

L'informe es va fer fa 5 hores i 12 minuts, a les 23:00 UTC
Pronòstic vàlid del 30 a les 00 UTC al 30 a les 24 UTC
Vent 7 kt del Nord-Est
Visibilitat: 9000 m
Núvols disperses a una alçada de 1900 ft
Temporalment
l' 30 a les 06 UTC al 30 a les 10 UTC
Visibilitat: 3000 m
Escasses núvols a una alçada de 1600 ft, Cumulonimbus.
tempesta, pluja

TAF: WAOO 292300Z 3000/3024 05007KT 9000 SCT019 TEMPO 3006/3010 3000 TSRA FEW016CB

Observacions i pronòstics meteorològics de més de 4000 aeroports (METAR i TAF).

Les estacions disponibles són els punts grocs i vermells al mapa.

Posi el ratolí al punt desitjat per veure el nom de l'estació.

Feu clic per veure les observacions i els pronòstics meteorològics.

Per canviar el mapa: feu clic els botons verds amb una creu de color negre per apropar; al botó verd amb un guió per allunyar la imatge; o en les fletxes verdes per a mapes adjacents.


METAR-TAF: